Patterson, California
Current Conditions -  °F | °C
As of 5:53 PM on Saturday 20 Dec 2014 (Local Time) from KMOD Reporting Station
Overcast Overcast  
Wind Chill: 56°   Ceiling: 10000
Heat Index: 56°   Visibility: 8mi
Dew Point: 53°   Wind: 0mph
Humidity: 90%   Direction: NA
Pressure: 30.22"   Gusts: NA
Location:  37.47°N, 121.12°W
Report Text: KMOD 210153Z 00000KT 8SM OVC100 13/12 A3022 RMK AO2 SLP235 T01330117
Loading
Personal Weather Stations






























Interactive Weather Map New forecast layout! Learn more

10-Day Weather Forecast

Advertisements
Track Severe Weather on mobile